createdAt,value
2023-03-13T06:03:09.295Z,95683.00
2023-03-13T09:53:14.442Z,95532.00
2023-03-13T09:54:14.461Z,95526.00
2023-03-13T09:56:14.473Z,95514.00
2023-03-13T09:57:14.490Z,95514.00
2023-03-13T09:58:14.772Z,95518.00
2023-03-13T09:59:14.569Z,95526.00
2023-03-13T10:00:14.578Z,95528.00
2023-03-13T10:01:14.647Z,95530.00
2023-03-13T10:02:14.662Z,95528.00
2023-03-13T10:03:14.667Z,95528.00
2023-03-13T10:04:14.786Z,95530.00
2023-03-13T10:05:14.727Z,95532.00
2023-03-13T10:06:14.749Z,95530.00
2023-03-13T10:08:14.830Z,95526.00
2023-03-13T10:09:14.856Z,95528.00
2023-03-13T10:10:14.882Z,95532.00
2023-03-13T10:11:14.900Z,95534.00
2023-03-13T10:12:14.924Z,95532.00
2023-03-13T10:13:14.977Z,95522.00
2023-03-13T10:14:14.980Z,95520.00
2023-03-13T10:15:15.034Z,95522.00
2023-03-13T10:16:16.500Z,95518.00
2023-03-13T10:17:15.062Z,95516.00
2023-03-13T10:18:15.077Z,95510.00
2023-03-13T10:20:15.045Z,95508.00
2023-03-13T10:22:15.049Z,95506.00
2023-03-13T10:23:14.994Z,95501.00
2023-03-13T10:24:15.006Z,95499.00
2023-03-13T10:25:14.994Z,95493.00
2023-03-13T10:26:14.988Z,95491.00
2023-03-13T10:27:14.997Z,95485.00
2023-03-13T10:38:14.899Z,95461.00
2023-03-13T10:39:14.904Z,95456.00
2023-03-13T10:40:14.891Z,95454.00
2023-03-13T10:42:14.887Z,95454.00
2023-03-13T10:43:14.936Z,95452.00
2023-03-13T10:44:14.865Z,95452.00
2023-03-13T10:45:14.858Z,95452.00
2023-03-13T10:46:14.876Z,95456.00
2023-03-13T10:47:14.873Z,95454.00
2023-03-13T10:48:14.867Z,95456.00
2023-03-13T10:49:14.930Z,95452.00
2023-03-13T10:50:14.978Z,95444.00
2023-03-13T10:51:15.070Z,95442.00
2023-03-13T10:55:15.171Z,95426.00
2023-03-13T10:58:15.316Z,95412.00
2023-03-13T10:59:15.341Z,95403.00
2023-03-13T11:16:16.348Z,95361.00
2023-03-13T11:20:16.424Z,95346.00
2023-03-13T11:21:18.545Z,95346.00
2023-03-13T11:22:16.592Z,95342.00
2023-03-13T11:27:16.478Z,95336.00
2023-03-13T11:34:16.381Z,95318.00
2023-03-13T11:35:16.383Z,95314.00
2023-03-13T11:36:16.494Z,95311.00
2023-03-13T11:37:16.395Z,95311.00
2023-03-13T11:38:15.369Z,95309.00
2023-03-13T11:40:16.448Z,95311.00
2023-03-13T11:41:16.366Z,95307.00
2023-03-13T11:43:25.187Z,95301.00
2023-03-13T11:47:16.279Z,95293.00
2023-03-13T11:48:16.270Z,95291.00
2023-03-13T11:49:16.303Z,95287.00
2023-03-13T11:56:16.331Z,95262.00
2023-03-13T12:02:15.733Z,95258.00
2023-03-13T12:05:16.778Z,95244.00
2023-03-13T12:11:17.015Z,95236.00
2023-03-13T12:15:19.072Z,95226.00
2023-03-13T12:18:17.202Z,95213.00
2023-03-13T12:19:17.192Z,95209.00
2023-03-13T12:24:17.128Z,95191.00
2023-03-13T12:25:17.124Z,95185.00
2023-03-13T12:26:17.136Z,95179.00
2023-03-13T12:27:16.109Z,95173.00
2023-03-13T12:28:17.144Z,95171.00
2023-03-13T12:29:16.121Z,95171.00
2023-03-13T12:30:16.089Z,95168.00
2023-03-13T12:31:17.209Z,95166.00
2023-03-13T12:32:17.148Z,95164.00
2023-03-13T12:33:17.059Z,95148.00
2023-03-13T12:34:17.075Z,95142.00
2023-03-13T12:35:17.074Z,95136.00
2023-03-13T12:36:16.086Z,95132.00
2023-03-13T12:37:17.045Z,95128.00
2023-03-13T12:38:17.037Z,95124.00
2023-03-13T12:39:17.053Z,95117.00
2023-03-13T12:40:16.086Z,95115.00
2023-03-13T12:41:16.047Z,95117.00
2023-03-13T12:42:17.039Z,95117.00
2023-03-13T12:43:17.006Z,95117.00
2023-03-13T12:44:17.026Z,95118.00
2023-03-13T12:45:17.085Z,95113.00
2023-03-13T12:46:17.096Z,95111.00
2023-03-13T12:47:16.114Z,95109.00
2023-03-13T12:48:17.328Z,95107.00
2023-03-13T12:49:17.281Z,95103.00
2023-03-13T12:50:17.282Z,95095.00
2023-03-13T12:51:17.328Z,95095.00
2023-03-13T12:52:17.371Z,95087.00
2023-03-13T12:53:20.380Z,95083.00
2023-03-13T12:54:16.491Z,95081.00
2023-03-13T12:55:17.391Z,95079.00
2023-03-13T12:56:17.388Z,95081.00
2023-03-13T12:57:17.506Z,95075.00
2023-03-13T12:58:17.382Z,95069.00
2023-03-13T12:59:17.364Z,95069.00
2023-03-13T13:00:17.377Z,95062.00
2023-03-13T13:01:17.401Z,95062.00
2023-03-13T13:02:16.367Z,95062.00
2023-03-13T13:03:17.335Z,95060.00
2023-03-13T13:04:16.404Z,95058.00
2023-03-13T13:05:17.313Z,95052.00
2023-03-13T13:06:16.317Z,95052.00
2023-03-13T13:07:16.300Z,95052.00
2023-03-13T13:08:17.286Z,95052.00
2023-03-13T13:09:16.298Z,95052.00
2023-03-13T13:10:17.285Z,95046.00
2023-03-13T13:11:17.280Z,95046.00
2023-03-13T13:12:17.261Z,95048.00
2023-03-13T13:13:17.324Z,95042.00
2023-03-13T13:14:17.401Z,95040.00
2023-03-13T13:15:17.364Z,95036.00
2023-03-13T13:16:17.411Z,95032.00
2023-03-13T13:17:16.647Z,95028.00
2023-03-13T13:18:17.362Z,95023.00
2023-03-13T13:19:17.364Z,95019.00
2023-03-13T13:20:17.378Z,95019.00
2023-03-13T13:21:16.391Z,95021.00
2023-03-13T13:22:17.481Z,95023.00
2023-03-13T13:23:17.424Z,95023.00
2023-03-13T13:24:17.443Z,95021.00
2023-03-13T13:25:17.457Z,95015.00
2023-03-13T13:26:17.468Z,95015.00
2023-03-13T13:27:17.494Z,95009.00
2023-03-13T13:28:17.514Z,95009.00
2023-03-13T13:29:16.553Z,95005.00
2023-03-13T13:30:17.641Z,95007.00
2023-03-13T13:31:16.812Z,95007.00
2023-03-13T13:32:17.768Z,95001.00
2023-03-13T13:33:17.686Z,94997.00
2023-03-13T13:34:17.730Z,94989.00
2023-03-13T13:35:17.757Z,94985.00
2023-03-13T13:36:17.812Z,94981.00
2023-03-13T13:37:17.802Z,94977.00
2023-03-13T13:38:16.812Z,94979.00
2023-03-13T13:39:17.857Z,94975.00
2023-03-13T13:40:17.988Z,94973.00
2023-03-13T13:41:17.953Z,94969.00
2023-03-13T13:42:17.975Z,94969.00
2023-03-13T13:43:17.027Z,94969.00
2023-03-13T13:44:18.097Z,94969.00
2023-03-13T13:45:18.091Z,94968.00
2023-03-13T13:46:18.253Z,94968.00
2023-03-13T13:47:18.058Z,94969.00
2023-03-13T13:48:17.119Z,94968.00
2023-03-13T13:49:17.069Z,94969.00
2023-03-13T13:50:18.091Z,94968.00
2023-03-13T13:51:18.111Z,94969.00
2023-03-13T13:52:17.112Z,94964.00
2023-03-13T13:53:17.156Z,94968.00
2023-03-13T13:54:17.164Z,94964.00
2023-03-13T13:55:18.356Z,94962.00
2023-03-13T13:56:18.219Z,94960.00
2023-03-13T13:57:17.265Z,94954.00
2023-03-13T13:58:17.278Z,94952.00
2023-03-13T13:59:18.310Z,94952.00
2023-03-13T14:00:18.366Z,94948.00
2023-03-13T14:01:17.502Z,94952.00
2023-03-13T14:02:18.523Z,94950.00
2023-03-13T14:03:18.448Z,94950.00
2023-03-13T14:04:18.477Z,94952.00
2023-03-13T14:05:17.602Z,94950.00
2023-03-13T14:06:18.499Z,94958.00
2023-03-13T14:07:17.520Z,94954.00
2023-03-13T14:08:18.536Z,94956.00
2023-03-13T14:09:17.536Z,94954.00
2023-03-13T14:10:18.552Z,94952.00
2023-03-13T14:11:18.559Z,94948.00
2023-03-13T14:12:18.579Z,94946.00
2023-03-13T14:13:18.590Z,94944.00
2023-03-13T14:14:18.589Z,94942.00
2023-03-13T14:15:18.626Z,94938.00
2023-03-13T14:16:17.665Z,94940.00
2023-03-13T14:17:18.562Z,94938.00
2023-03-13T14:18:18.606Z,94936.00
2023-03-13T14:19:18.580Z,94934.00
2023-03-13T14:20:18.585Z,94932.00
2023-03-13T14:21:17.588Z,94930.00
2023-03-13T14:22:18.593Z,94934.00
2023-03-13T14:23:18.614Z,94934.00
2023-03-13T14:24:18.671Z,94936.00
2023-03-13T14:25:18.624Z,94930.00
2023-03-13T14:26:17.702Z,94932.00
2023-03-13T14:27:18.652Z,94930.00
2023-03-13T14:28:18.687Z,94930.00
2023-03-13T14:29:18.753Z,94924.00
2023-03-13T14:30:18.858Z,94924.00
2023-03-13T14:31:18.843Z,94922.00
2023-03-13T14:32:18.919Z,94919.00
2023-03-13T14:33:17.868Z,94919.00
2023-03-13T14:34:18.976Z,94919.00
2023-03-13T14:35:18.881Z,94919.00
2023-03-13T14:36:18.888Z,94919.00
2023-03-13T14:37:18.875Z,94924.00
2023-03-13T14:38:18.896Z,94921.00
2023-03-13T14:39:17.894Z,94921.00
2023-03-13T14:40:18.896Z,94921.00
2023-03-13T14:41:17.897Z,94919.00
2023-03-13T14:42:18.895Z,94917.00
2023-03-13T14:43:17.901Z,94915.00
2023-03-13T14:44:18.918Z,94913.00
2023-03-13T14:45:18.952Z,94913.00
2023-03-13T14:46:17.989Z,94911.00
2023-03-13T14:47:18.988Z,94909.00
2023-03-13T14:48:18.934Z,94911.00
2023-03-13T14:49:19.058Z,94911.00
2023-03-13T14:50:18.095Z,94909.00
2023-03-13T14:51:19.930Z,94905.00
2023-03-13T14:52:18.932Z,94907.00
2023-03-13T14:53:18.927Z,94901.00
2023-03-13T14:54:18.924Z,94901.00
2023-03-13T14:55:18.937Z,94899.00
2023-03-13T14:56:18.989Z,94889.00
2023-03-13T14:57:18.962Z,94885.00
2023-03-13T14:58:18.973Z,94881.00
2023-03-13T14:59:18.963Z,94879.00
2023-03-13T15:00:18.957Z,94874.00
2023-03-13T15:01:19.077Z,94874.00
2023-03-13T15:02:17.942Z,94872.00
2023-03-13T15:03:19.025Z,94870.00
2023-03-13T15:04:19.046Z,94868.00
2023-03-13T15:05:18.965Z,94862.00
2023-03-13T15:06:18.963Z,94860.00
2023-03-13T15:07:18.944Z,94860.00
2023-03-13T15:08:18.937Z,94858.00
2023-03-13T15:09:18.952Z,94858.00
2023-03-13T15:10:17.960Z,94862.00
2023-03-13T15:11:18.989Z,94856.00
2023-03-13T15:12:18.985Z,94858.00
2023-03-13T15:13:19.145Z,94856.00
2023-03-13T15:14:19.064Z,94856.00
2023-03-13T15:15:19.137Z,94852.00
2023-03-13T15:16:19.207Z,94850.00
2023-03-13T15:17:19.196Z,94844.00
2023-03-13T15:18:19.811Z,94844.00
2023-03-13T15:19:19.301Z,94840.00
2023-03-13T15:20:19.348Z,94836.00
2023-03-13T15:21:19.405Z,94834.00
2023-03-13T15:22:19.399Z,94832.00
2023-03-13T15:23:19.391Z,94832.00
2023-03-13T15:24:19.381Z,94834.00
2023-03-13T15:25:19.387Z,94834.00
2023-03-13T15:26:19.384Z,94832.00
2023-03-13T15:27:18.388Z,94832.00
2023-03-13T15:28:19.466Z,94830.00
2023-03-13T15:29:19.424Z,94826.00
2023-03-13T15:30:19.480Z,94821.00
2023-03-13T15:31:19.463Z,94819.00
2023-03-13T15:32:18.505Z,94819.00
2023-03-13T15:33:19.460Z,94817.00
2023-03-13T15:34:19.484Z,94821.00
2023-03-13T15:35:19.501Z,94819.00
2023-03-13T15:36:19.592Z,94819.00
2023-03-13T15:37:19.582Z,94817.00
2023-03-13T15:38:19.598Z,94817.00
2023-03-13T15:39:19.608Z,94815.00
2023-03-13T15:40:19.651Z,94815.00
2023-03-13T15:41:19.692Z,94807.00
2023-03-13T15:42:18.689Z,94807.00
2023-03-13T15:43:19.732Z,94805.00
2023-03-13T15:44:18.748Z,94805.00
2023-03-13T15:45:19.780Z,94807.00
2023-03-13T15:46:19.863Z,94805.00
2023-03-13T15:47:19.820Z,94805.00
2023-03-13T15:48:19.863Z,94805.00
2023-03-13T15:49:19.896Z,94801.00
2023-03-13T15:50:19.918Z,94799.00
2023-03-13T15:51:19.934Z,94797.00
2023-03-13T15:52:19.985Z,94797.00
2023-03-13T15:53:20.008Z,94797.00
2023-03-13T15:54:19.132Z,94795.00
2023-03-13T15:55:19.071Z,94795.00
2023-03-13T15:56:20.140Z,94793.00
2023-03-13T15:57:19.160Z,94789.00
2023-03-13T15:58:20.209Z,94787.00
2023-03-13T15:59:20.323Z,94783.00
2023-03-13T16:00:20.281Z,94781.00
2023-03-13T16:01:20.478Z,94775.00
2023-03-13T16:02:19.355Z,94772.00
2023-03-13T16:03:20.399Z,94772.00
2023-03-13T16:04:20.522Z,94774.00
2023-03-13T16:05:19.500Z,94770.00
2023-03-13T16:06:20.535Z,94768.00
2023-03-13T16:07:20.580Z,94766.00
2023-03-13T16:08:34.251Z,94762.00
2023-03-13T16:09:20.635Z,94758.00
2023-03-13T16:10:19.824Z,94754.00
2023-03-13T16:11:20.623Z,94750.00
2023-03-13T16:12:19.617Z,94748.00
2023-03-13T16:13:20.611Z,94748.00
2023-03-13T16:14:19.589Z,94750.00
2023-03-13T16:15:20.587Z,94746.00
2023-03-13T16:16:19.647Z,94748.00
2023-03-13T16:17:20.590Z,94736.00
2023-03-13T16:18:20.575Z,94736.00
2023-03-13T16:19:20.555Z,94732.00
2023-03-13T16:20:19.615Z,94727.00
2023-03-13T16:21:20.685Z,94728.00
2023-03-13T16:22:19.730Z,94728.00
2023-03-13T16:23:19.806Z,94727.00
2023-03-13T16:24:20.857Z,94723.00
2023-03-13T16:25:19.917Z,94721.00
2023-03-13T16:26:20.063Z,94717.00
2023-03-13T16:27:21.056Z,94715.00
2023-03-13T16:28:21.154Z,94717.00
2023-03-13T16:29:20.180Z,94719.00
